Stena Germanica — SKPZ — position and weather

sailwx.info

Track history (hours):
 
Tides and Currents Weather Stations Pressure Air Temp Water Temp Dewpoint Dewpoint Depression Visibility Wind Speed Wind Dir Waves Ship Positions

Stena Germanica

Last reported at 2015-Jan-28 21:33 UTC. Time now 2015-Jan-28 22:21 UTC.
Position N 54°42' E 018°56'.

Length 176 m; draft 6.6 m.

Type: Ship (hazmat cat A). MMSI: 265292000.

Date/timePositionNaut miles runAvg speedWind from/ knotsBaromVisibWave heightAir tempDewpointWater temp
2015-Jan-28 21:33N 54°42' E 018°56'1414.4
2015-Jan-28 20:34N 54°32' E 018°39'5 4.8
2015-Jan-28 19:32N 54°33' E 018°30'0 0.0
2015-Jan-28 18:33N 54°33' E 018°30'9 8.8
2015-Jan-28 17:34N 54°32' E 018°45'1413.6
2015-Jan-28 16:34N 54°45' E 018°52'1716.6
2015-Jan-28 15:33N 54°58' E 018°32'1816.8
2015-Jan-28 14:29N 55°08' E 018°07'8 0.6
2015-Jan-28 00:29N 55°12' E 017°55'1516.6
2015-Jan-27 23:33N 55°04' E 018°18'1616.5
2015-Jan-27 22:34N 54°53' E 018°39'1716.9
2015-Jan-27 21:33N 54°40' E 018°57'1413.6
2015-Jan-27 20:33N 54°32' E 018°38'4 4.3
2015-Jan-27 19:33N 54°33' E 018°30'0 0.0
2015-Jan-27 18:33N 54°33' E 018°30'9 8.6
2015-Jan-27 17:34N 54°32' E 018°45'1413.8
2015-Jan-27 16:34N 54°45' E 018°51'1717.1
2015-Jan-27 15:33N 54°59' E 018°33'1616.6
2015-Jan-27 14:34N 55°08' E 018°09'1 0.1
2015-Jan-26 22:24N 55°08' E 018°07'1314.8
2015-Jan-26 21:33N 55°00' E 018°25'1414.6
2015-Jan-26 20:33N 54°52' E 018°44'1313.3
2015-Jan-26 19:33N 54°41' E 018°58'1413.6
2015-Jan-26 18:33N 54°32' E 018°40'6 5.6
2015-Jan-26 17:33N 54°33' E 018°30'0 0.0
2015-Jan-26 16:33N 54°33' E 018°30'0 0.0
2015-Jan-26 15:33N 54°33' E 018°30'0 0.0
2015-Jan-26 14:30N 54°33' E 018°30'0 0.0
2015-Jan-26 13:33N 54°33' E 018°30'0 0.0
2015-Jan-26 12:33N 54°33' E 018°30'0 0.0
2015-Jan-26 11:33N 54°33' E 018°30'0 0.0
2015-Jan-26 10:33N 54°33' E 018°30'0 0.0
2015-Jan-26 09:33N 54°33' E 018°30'0 0.0
2015-Jan-26 08:33N 54°33' E 018°30'1 1.2
2015-Jan-26 07:33N 54°32' E 018°32'1212.3
2015-Jan-26 06:33N 54°35' E 018°53'1313.2
2015-Jan-26 05:33N 54°48' E 018°46'1514.9
2015-Jan-26 04:33N 54°59' E 018°29'1514.8
2015-Jan-26 03:33N 55°08' E 018°07'10514.7
2015-Jan-25 20:26N 56°08' E 015°36'2 0.9
2015-Jan-25 18:33N 56°06' E 015°35'11316.1
2015-Jan-25 11:33N 55°02' E 018°19'1616.2
2015-Jan-25 10:33N 54°52' E 018°41'1615.7
2015-Jan-25 09:33N 54°40' E 018°57'1414.0
2015-Jan-25 08:33N 54°32' E 018°37'4 4.1
2015-Jan-25 07:32N 54°33' E 018°30'0 0.0
2015-Jan-25 06:33N 54°33' E 018°30'9 8.9
2015-Jan-25 05:33N 54°32' E 018°45'1413.6
2015-Jan-25 04:33N 54°45' E 018°52'1716.7
2015-Jan-25 03:33N 54°58' E 018°33'1716.5
2015-Jan-25 02:33N 55°07' E 018°09'10216.6
2015-Jan-24 20:25N 56°03' E 015°38'7 3.7
2015-Jan-24 18:26N 56°10' E 015°38'9615.7
2015-Jan-24 12:16N 55°12' E 017°54'1216.8
2015-Jan-24 11:33N 55°05' E 018°12'1716.8
2015-Jan-24 10:33N 54°56' E 018°36'1716.8
2015-Jan-24 09:33N 54°43' E 018°55'1413.6
2015-Jan-24 08:33N 54°32' E 018°42'7 6.5
2015-Jan-24 07:31N 54°33' E 018°30'0 0.0
2015-Jan-24 06:32N 54°33' E 018°30'7 7.2
2015-Jan-24 05:33N 54°32' E 018°42'1211.8
2015-Jan-24 04:34N 54°42' E 018°55'1514.6
2015-Jan-24 03:34N 54°53' E 018°40'1514.3
2015-Jan-24 02:29N 55°02' E 018°18'1314.2
2015-Jan-24 01:33N 55°09' E 017°58'2 0.1
2015-Jan-23 01:12N 55°11' E 017°56'1015.8
2015-Jan-23 00:33N 55°05' E 018°11'1615.6
2015-Jan-22 23:34N 54°56' E 018°33'1615.9
2015-Jan-22 22:34N 54°44' E 018°51'1312.7
2015-Jan-22 21:34N 54°32' E 018°46'9 8.9
2015-Jan-22 20:32N 54°33' E 018°30'0 0.0
2015-Jan-22 19:33N 54°33' E 018°30'9 8.9
2015-Jan-22 18:33N 54°32' E 018°46'1413.9
2015-Jan-22 17:33N 54°46' E 018°50'1717.5
2015-Jan-22 16:33N 54°57' E 018°27'2117.5
2015-Jan-22 15:22N 55°11' E 017°59'1 0.1
2015-Jan-22 00:24N 55°10' E 017°59'1314.5
2015-Jan-21 23:31N 55°02' E 018°17'1014.5
2015-Jan-21 22:50N 54°56' E 018°30'114.5
2015-Jan-21 22:46N 54°55' E 018°32'314.4
2015-Jan-21 22:34N 54°53' E 018°36'1514.7
2015-Jan-21 21:34N 54°43' E 018°55'1312.8
2015-Jan-21 20:34N 54°32' E 018°45'8 8.2
2015-Jan-21 19:32N 54°33' E 018°30'0 0.0
2015-Jan-21 18:33N 54°33' E 018°30'9 8.8
2015-Jan-21 17:34N 54°32' E 018°45'1414.4
2015-Jan-21 16:34N 54°46' E 018°51'1717.2
2015-Jan-21 15:34N 54°59' E 018°30'1717.4
2015-Jan-21 14:34N 55°08' E 018°05'6 0.4
2015-Jan-21 00:33N 55°11' E 017°56'1616.5
2015-Jan-20 23:33N 55°02' E 018°20'1716.6
2015-Jan-20 22:33N 54°51' E 018°42'1615.8
2015-Jan-20 21:34N 54°38' E 018°56'1313.0
2015-Jan-20 20:34N 54°32' E 018°35'3 2.9
2015-Jan-20 19:31N 54°33' E 018°30'0 0.0
2015-Jan-20 18:33N 54°33' E 018°30'8 7.9
2015-Jan-20 17:33N 54°32' E 018°44'1413.7
2015-Jan-20 16:33N 54°45' E 018°51'1717.1
2015-Jan-20 15:33N 54°58' E 018°32'1717.2
2015-Jan-20 14:33N 55°08' E 018°08'19 1.3
2015-Jan-19 23:33N 55°18' E 017°39'1514.6
2015-Jan-19 22:33N 55°10' E 018°00'1514.9
2015-Jan-19 21:33N 55°02' E 018°22'1514.7
2015-Jan-19 20:33N 54°53' E 018°43'1515.1
2015-Jan-19 19:33N 54°40' E 018°57'1413.7
2015-Jan-19 18:33N 54°32' E 018°39'5 5.0
2015-Jan-19 17:33N 54°33' E 018°30'0 0.0
2015-Jan-19 16:33N 54°33' E 018°30'0 0.0
2015-Jan-19 15:33N 54°33' E 018°30'0 0.0
2015-Jan-19 14:33N 54°33' E 018°30'0 0.0
2015-Jan-19 13:33N 54°33' E 018°30'0 0.0
2015-Jan-19 12:33N 54°33' E 018°30'0 0.0
2015-Jan-19 11:34N 54°33' E 018°30'0 0.0
2015-Jan-19 10:34N 54°33' E 018°30'0 0.0
2015-Jan-19 09:34N 54°33' E 018°30'0 0.0
2015-Jan-19 08:34N 54°33' E 018°30'0 0.4
2015-Jan-19 07:34N 54°33' E 018°31'1211.7
2015-Jan-19 06:34N 54°34' E 018°51'1515.4
2015-Jan-19 05:34N 54°49' E 018°46'1515.4
2015-Jan-19 04:34N 54°60' E 018°26'1515.4
2015-Jan-19 03:33N 55°08' E 018°04'  
Track history (hours):
 
Tides and Currents Weather Stations Pressure Air Temp Water Temp Dewpoint Dewpoint Depression Visibility Wind Speed Wind Dir Waves Ship Positions

Stena Germanica

Last reported at 2015-Jan-28 21:33 UTC. Time now 2015-Jan-28 22:21 UTC.
Position N 54°42' E 018°56'.

Length 176 m; draft 6.6 m.

Type: Ship (hazmat cat A). MMSI: 265292000.

Date/timePositionNaut miles runAvg speedWind from/ knotsBaromVisibWave heightAir tempDewpointWater temp
2015-Jan-28 21:33N 54°42' E 018°56'1414.4
2015-Jan-28 20:34N 54°32' E 018°39'5 4.8
2015-Jan-28 19:32N 54°33' E 018°30'0 0.0
2015-Jan-28 18:33N 54°33' E 018°30'9 8.8
2015-Jan-28 17:34N 54°32' E 018°45'1413.6
2015-Jan-28 16:34N 54°45' E 018°52'1716.6
2015-Jan-28 15:33N 54°58' E 018°32'1816.8
2015-Jan-28 14:29N 55°08' E 018°07'8 0.6
2015-Jan-28 00:29N 55°12' E 017°55'1516.6
2015-Jan-27 23:33N 55°04' E 018°18'1616.5
2015-Jan-27 22:34N 54°53' E 018°39'1716.9
2015-Jan-27 21:33N 54°40' E 018°57'1413.6
2015-Jan-27 20:33N 54°32' E 018°38'4 4.3
2015-Jan-27 19:33N 54°33' E 018°30'0 0.0
2015-Jan-27 18:33N 54°33' E 018°30'9 8.6
2015-Jan-27 17:34N 54°32' E 018°45'1413.8
2015-Jan-27 16:34N 54°45' E 018°51'1717.1
2015-Jan-27 15:33N 54°59' E 018°33'1616.6
2015-Jan-27 14:34N 55°08' E 018°09'1 0.1
2015-Jan-26 22:24N 55°08' E 018°07'1314.8
2015-Jan-26 21:33N 55°00' E 018°25'1414.6
2015-Jan-26 20:33N 54°52' E 018°44'1313.3
2015-Jan-26 19:33N 54°41' E 018°58'1413.6
2015-Jan-26 18:33N 54°32' E 018°40'6 5.6
2015-Jan-26 17:33N 54°33' E 018°30'0 0.0
2015-Jan-26 16:33N 54°33' E 018°30'0 0.0
2015-Jan-26 15:33N 54°33' E 018°30'0 0.0
2015-Jan-26 14:30N 54°33' E 018°30'0 0.0
2015-Jan-26 13:33N 54°33' E 018°30'0 0.0
2015-Jan-26 12:33N 54°33' E 018°30'0 0.0
2015-Jan-26 11:33N 54°33' E 018°30'0 0.0
2015-Jan-26 10:33N 54°33' E 018°30'0 0.0
2015-Jan-26 09:33N 54°33' E 018°30'0 0.0
2015-Jan-26 08:33N 54°33' E 018°30'1 1.2
2015-Jan-26 07:33N 54°32' E 018°32'1212.3
2015-Jan-26 06:33N 54°35' E 018°53'1313.2
2015-Jan-26 05:33N 54°48' E 018°46'1514.9
2015-Jan-26 04:33N 54°59' E 018°29'1514.8
2015-Jan-26 03:33N 55°08' E 018°07'10514.7
2015-Jan-25 20:26N 56°08' E 015°36'2 0.9
2015-Jan-25 18:33N 56°06' E 015°35'11316.1
2015-Jan-25 11:33N 55°02' E 018°19'1616.2
2015-Jan-25 10:33N 54°52' E 018°41'1615.7
2015-Jan-25 09:33N 54°40' E 018°57'1414.0
2015-Jan-25 08:33N 54°32' E 018°37'4 4.1
2015-Jan-25 07:32N 54°33' E 018°30'0 0.0
2015-Jan-25 06:33N 54°33' E 018°30'9 8.9
2015-Jan-25 05:33N 54°32' E 018°45'1413.6
2015-Jan-25 04:33N 54°45' E 018°52'1716.7
2015-Jan-25 03:33N 54°58' E 018°33'1716.5
2015-Jan-25 02:33N 55°07' E 018°09'10216.6
2015-Jan-24 20:25N 56°03' E 015°38'7 3.7
2015-Jan-24 18:26N 56°10' E 015°38'9615.7
2015-Jan-24 12:16N 55°12' E 017°54'1216.8
2015-Jan-24 11:33N 55°05' E 018°12'1716.8
2015-Jan-24 10:33N 54°56' E 018°36'1716.8
2015-Jan-24 09:33N 54°43' E 018°55'1413.6
2015-Jan-24 08:33N 54°32' E 018°42'7 6.5
2015-Jan-24 07:31N 54°33' E 018°30'0 0.0
2015-Jan-24 06:32N 54°33' E 018°30'7 7.2
2015-Jan-24 05:33N 54°32' E 018°42'1211.8
2015-Jan-24 04:34N 54°42' E 018°55'1514.6
2015-Jan-24 03:34N 54°53' E 018°40'1514.3
2015-Jan-24 02:29N 55°02' E 018°18'1314.2
2015-Jan-24 01:33N 55°09' E 017°58'2 0.1
2015-Jan-23 01:12N 55°11' E 017°56'1015.8
2015-Jan-23 00:33N 55°05' E 018°11'1615.6
2015-Jan-22 23:34N 54°56' E 018°33'1615.9
2015-Jan-22 22:34N 54°44' E 018°51'1312.7
2015-Jan-22 21:34N 54°32' E 018°46'9 8.9
2015-Jan-22 20:32N 54°33' E 018°30'0 0.0
2015-Jan-22 19:33N 54°33' E 018°30'9 8.9
2015-Jan-22 18:33N 54°32' E 018°46'1413.9
2015-Jan-22 17:33N 54°46' E 018°50'1717.5
2015-Jan-22 16:33N 54°57' E 018°27'2117.5
2015-Jan-22 15:22N 55°11' E 017°59'1 0.1
2015-Jan-22 00:24N 55°10' E 017°59'1314.5
2015-Jan-21 23:31N 55°02' E 018°17'1014.5
2015-Jan-21 22:50N 54°56' E 018°30'114.5
2015-Jan-21 22:46N 54°55' E 018°32'314.4
2015-Jan-21 22:34N 54°53' E 018°36'1514.7
2015-Jan-21 21:34N 54°43' E 018°55'1312.8
2015-Jan-21 20:34N 54°32' E 018°45'8 8.2
2015-Jan-21 19:32N 54°33' E 018°30'0 0.0
2015-Jan-21 18:33N 54°33' E 018°30'9 8.8
2015-Jan-21 17:34N 54°32' E 018°45'1414.4
2015-Jan-21 16:34N 54°46' E 018°51'1717.2
2015-Jan-21 15:34N 54°59' E 018°30'1717.4
2015-Jan-21 14:34N 55°08' E 018°05'6 0.4
2015-Jan-21 00:33N 55°11' E 017°56'1616.5
2015-Jan-20 23:33N 55°02' E 018°20'1716.6
2015-Jan-20 22:33N 54°51' E 018°42'1615.8
2015-Jan-20 21:34N 54°38' E 018°56'1313.0
2015-Jan-20 20:34N 54°32' E 018°35'3 2.9
2015-Jan-20 19:31N 54°33' E 018°30'0 0.0
2015-Jan-20 18:33N 54°33' E 018°30'8 7.9
2015-Jan-20 17:33N 54°32' E 018°44'1413.7
2015-Jan-20 16:33N 54°45' E 018°51'1717.1
2015-Jan-20 15:33N 54°58' E 018°32'1717.2
2015-Jan-20 14:33N 55°08' E 018°08'19 1.3
2015-Jan-19 23:33N 55°18' E 017°39'1514.6
2015-Jan-19 22:33N 55°10' E 018°00'1514.9
2015-Jan-19 21:33N 55°02' E 018°22'1514.7
2015-Jan-19 20:33N 54°53' E 018°43'1515.1
2015-Jan-19 19:33N 54°40' E 018°57'1413.7
2015-Jan-19 18:33N 54°32' E 018°39'5 5.0
2015-Jan-19 17:33N 54°33' E 018°30'0 0.0
2015-Jan-19 16:33N 54°33' E 018°30'0 0.0
2015-Jan-19 15:33N 54°33' E 018°30'0 0.0
2015-Jan-19 14:33N 54°33' E 018°30'0 0.0
2015-Jan-19 13:33N 54°33' E 018°30'0 0.0
2015-Jan-19 12:33N 54°33' E 018°30'0 0.0
2015-Jan-19 11:34N 54°33' E 018°30'0 0.0
2015-Jan-19 10:34N 54°33' E 018°30'0 0.0
2015-Jan-19 09:34N 54°33' E 018°30'0 0.0
2015-Jan-19 08:34N 54°33' E 018°30'0 0.4
2015-Jan-19 07:34N 54°33' E 018°31'1211.7
2015-Jan-19 06:34N 54°34' E 018°51'1515.4
2015-Jan-19 05:34N 54°49' E 018°46'1515.4
2015-Jan-19 04:34N 54°60' E 018°26'1515.4
2015-Jan-19 03:33N 55°08' E 018°04'  

Dump ship's entire track history